sensor_id;sensor_type;location;lat;lon;timestamp;P1;durP1;ratioP1;P2;durP2;ratioP2
19207;SDS011;9737;59.466;18.036;2023-07-13T00:00:06;7.93;;;5.97;;
19207;SDS011;9737;59.466;18.036;2023-07-13T00:02:36;9.57;;;5.85;;
19207;SDS011;9737;59.466;18.036;2023-07-13T00:05:05;8.00;;;5.70;;
19207;SDS011;9737;59.466;18.036;2023-07-13T00:07:35;8.32;;;5.93;;
19207;SDS011;9737;59.466;18.036;2023-07-13T00:10:04;9.27;;;6.35;;
19207;SDS011;9737;59.466;18.036;2023-07-13T00:12:35;9.05;;;5.88;;
19207;SDS011;9737;59.466;18.036;2023-07-13T00:15:07;9.75;;;5.55;;
19207;SDS011;9737;59.466;18.036;2023-07-13T00:17:39;9.52;;;5.75;;
19207;SDS011;9737;59.466;18.036;2023-07-13T00:20:07;9.40;;;6.13;;
19207;SDS011;9737;59.466;18.036;2023-07-13T00:22:37;8.95;;;5.45;;
19207;SDS011;9737;59.466;18.036;2023-07-13T00:25:05;14.38;;;6.00;;
19207;SDS011;9737;59.466;18.036;2023-07-13T00:27:33;10.02;;;5.97;;
19207;SDS011;9737;59.466;18.036;2023-07-13T00:30:01;10.43;;;6.45;;
19207;SDS011;9737;59.466;18.036;2023-07-13T00:32:30;11.10;;;6.32;;
19207;SDS011;9737;59.466;18.036;2023-07-13T00:34:58;11.65;;;5.90;;
19207;SDS011;9737;59.466;18.036;2023-07-13T00:37:26;11.75;;;6.07;;
19207;SDS011;9737;59.466;18.036;2023-07-13T00:39:56;10.10;;;5.90;;
19207;SDS011;9737;59.466;18.036;2023-07-13T00:42:23;12.23;;;6.20;;
19207;SDS011;9737;59.466;18.036;2023-07-13T00:45:01;11.38;;;6.57;;
19207;SDS011;9737;59.466;18.036;2023-07-13T00:47:30;8.73;;;6.68;;
19207;SDS011;9737;59.466;18.036;2023-07-13T00:49:58;10.35;;;7.15;;
19207;SDS011;9737;59.466;18.036;2023-07-13T00:52:26;8.27;;;6.03;;
19207;SDS011;9737;59.466;18.036;2023-07-13T00:54:57;9.80;;;6.53;;
19207;SDS011;9737;59.466;18.036;2023-07-13T00:57:25;10.50;;;6.65;;
19207;SDS011;9737;59.466;18.036;2023-07-13T00:59:56;13.32;;;6.95;;
19207;SDS011;9737;59.466;18.036;2023-07-13T01:02:26;11.88;;;7.07;;
19207;SDS011;9737;59.466;18.036;2023-07-13T01:04:56;12.15;;;6.82;;
19207;SDS011;9737;59.466;18.036;2023-07-13T01:07:24;8.18;;;6.15;;
19207;SDS011;9737;59.466;18.036;2023-07-13T01:09:52;10.70;;;6.30;;
19207;SDS011;9737;59.466;18.036;2023-07-13T01:12:22;9.95;;;6.53;;
19207;SDS011;9737;59.466;18.036;2023-07-13T01:14:56;9.63;;;6.10;;
19207;SDS011;9737;59.466;18.036;2023-07-13T01:17:24;13.90;;;6.25;;
19207;SDS011;9737;59.466;18.036;2023-07-13T01:19:52;9.00;;;6.45;;
19207;SDS011;9737;59.466;18.036;2023-07-13T01:22:21;7.97;;;5.88;;
19207;SDS011;9737;59.466;18.036;2023-07-13T01:24:52;9.10;;;6.03;;
19207;SDS011;9737;59.466;18.036;2023-07-13T01:27:22;9.60;;;6.50;;
19207;SDS011;9737;59.466;18.036;2023-07-13T01:29:52;10.85;;;5.40;;
19207;SDS011;9737;59.466;18.036;2023-07-13T01:32:28;10.18;;;5.63;;
19207;SDS011;9737;59.466;18.036;2023-07-13T01:34:57;9.48;;;5.75;;
19207;SDS011;9737;59.466;18.036;2023-07-13T01:37:27;9.52;;;5.85;;
19207;SDS011;9737;59.466;18.036;2023-07-13T01:39:58;9.93;;;5.25;;
19207;SDS011;9737;59.466;18.036;2023-07-13T01:42:27;8.98;;;5.53;;
19207;SDS011;9737;59.466;18.036;2023-07-13T01:44:55;10.60;;;5.68;;
19207;SDS011;9737;59.466;18.036;2023-07-13T01:47:23;6.72;;;5.30;;
19207;SDS011;9737;59.466;18.036;2023-07-13T01:49:52;9.75;;;5.03;;
19207;SDS011;9737;59.466;18.036;2023-07-13T01:52:20;8.05;;;5.10;;
19207;SDS011;9737;59.466;18.036;2023-07-13T01:54:50;8.23;;;5.53;;
19207;SDS011;9737;59.466;18.036;2023-07-13T01:57:17;9.90;;;5.25;;
19207;SDS011;9737;59.466;18.036;2023-07-13T01:59:45;7.28;;;5.32;;
19207;SDS011;9737;59.466;18.036;2023-07-13T02:02:13;11.32;;;5.40;;
19207;SDS011;9737;59.466;18.036;2023-07-13T02:04:41;9.20;;;5.85;;
19207;SDS011;9737;59.466;18.036;2023-07-13T02:07:09;8.80;;;5.68;;
19207;SDS011;9737;59.466;18.036;2023-07-13T02:09:37;8.50;;;5.35;;
19207;SDS011;9737;59.466;18.036;2023-07-13T02:12:07;7.18;;;5.57;;
19207;SDS011;9737;59.466;18.036;2023-07-13T02:14:35;7.57;;;5.05;;
19207;SDS011;9737;59.466;18.036;2023-07-13T02:17:04;7.53;;;5.25;;
19207;SDS011;9737;59.466;18.036;2023-07-13T02:19:32;11.20;;;5.18;;
19207;SDS011;9737;59.466;18.036;2023-07-13T02:22:00;10.65;;;5.38;;
19207;SDS011;9737;59.466;18.036;2023-07-13T02:24:28;12.20;;;5.00;;
19207;SDS011;9737;59.466;18.036;2023-07-13T02:26:55;8.73;;;5.38;;
19207;SDS011;9737;59.466;18.036;2023-07-13T02:29:25;12.07;;;5.50;;
19207;SDS011;9737;59.466;18.036;2023-07-13T02:31:53;9.82;;;5.60;;
19207;SDS011;9737;59.466;18.036;2023-07-13T02:34:22;7.75;;;5.95;;
19207;SDS011;9737;59.466;18.036;2023-07-13T02:36:50;9.35;;;6.10;;
19207;SDS011;9737;59.466;18.036;2023-07-13T02:39:17;9.50;;;5.68;;
19207;SDS011;9737;59.466;18.036;2023-07-13T02:41:45;9.98;;;6.07;;
19207;SDS011;9737;59.466;18.036;2023-07-13T02:44:13;11.20;;;5.82;;
19207;SDS011;9737;59.466;18.036;2023-07-13T02:46:43;10.90;;;6.05;;
19207;SDS011;9737;59.466;18.036;2023-07-13T02:49:11;8.57;;;6.20;;
19207;SDS011;9737;59.466;18.036;2023-07-13T02:51:39;9.82;;;6.80;;
19207;SDS011;9737;59.466;18.036;2023-07-13T02:54:07;11.55;;;6.60;;
19207;SDS011;9737;59.466;18.036;2023-07-13T02:56:34;12.90;;;6.60;;
19207;SDS011;9737;59.466;18.036;2023-07-13T02:59:05;11.45;;;6.43;;
19207;SDS011;9737;59.466;18.036;2023-07-13T03:01:33;9.73;;;6.40;;
19207;SDS011;9737;59.466;18.036;2023-07-13T03:04:03;12.70;;;6.90;;
19207;SDS011;9737;59.466;18.036;2023-07-13T03:06:31;10.98;;;5.88;;
19207;SDS011;9737;59.466;18.036;2023-07-13T03:09:00;11.70;;;6.78;;
19207;SDS011;9737;59.466;18.036;2023-07-13T03:11:28;10.05;;;6.55;;
19207;SDS011;9737;59.466;18.036;2023-07-13T03:13:56;13.93;;;6.90;;
19207;SDS011;9737;59.466;18.036;2023-07-13T03:16:24;14.77;;;7.20;;
19207;SDS011;9737;59.466;18.036;2023-07-13T03:18:52;14.02;;;6.95;;
19207;SDS011;9737;59.466;18.036;2023-07-13T03:21:21;12.55;;;6.65;;
19207;SDS011;9737;59.466;18.036;2023-07-13T03:23:49;10.73;;;6.65;;
19207;SDS011;9737;59.466;18.036;2023-07-13T03:26:19;12.43;;;7.05;;
19207;SDS011;9737;59.466;18.036;2023-07-13T03:28:47;14.73;;;6.78;;
19207;SDS011;9737;59.466;18.036;2023-07-13T03:31:16;9.98;;;6.93;;
19207;SDS011;9737;59.466;18.036;2023-07-13T03:33:45;15.68;;;7.45;;
19207;SDS011;9737;59.466;18.036;2023-07-13T03:36:15;15.70;;;7.50;;
19207;SDS011;9737;59.466;18.036;2023-07-13T03:38:48;14.48;;;6.55;;
19207;SDS011;9737;59.466;18.036;2023-07-13T03:41:17;15.98;;;7.28;;
19207;SDS011;9737;59.466;18.036;2023-07-13T03:43:45;14.60;;;6.80;;
19207;SDS011;9737;59.466;18.036;2023-07-13T03:46:14;12.73;;;7.43;;
19207;SDS011;9737;59.466;18.036;2023-07-13T03:48:43;13.00;;;7.05;;
19207;SDS011;9737;59.466;18.036;2023-07-13T03:51:12;18.40;;;7.32;;
19207;SDS011;9737;59.466;18.036;2023-07-13T03:53:42;12.50;;;7.13;;
19207;SDS011;9737;59.466;18.036;2023-07-13T03:56:13;16.58;;;7.07;;
19207;SDS011;9737;59.466;18.036;2023-07-13T03:58:42;13.65;;;7.15;;
19207;SDS011;9737;59.466;18.036;2023-07-13T04:01:12;14.68;;;7.00;;
19207;SDS011;9737;59.466;18.036;2023-07-13T04:03:40;17.70;;;7.38;;
19207;SDS011;9737;59.466;18.036;2023-07-13T04:06:18;18.40;;;6.65;;
19207;SDS011;9737;59.466;18.036;2023-07-13T04:08:48;16.58;;;6.97;;
19207;SDS011;9737;59.466;18.036;2023-07-13T04:11:19;17.15;;;6.68;;
19207;SDS011;9737;59.466;18.036;2023-07-13T04:13:48;17.92;;;6.20;;
19207;SDS011;9737;59.466;18.036;2023-07-13T04:16:17;14.35;;;6.20;;
19207;SDS011;9737;59.466;18.036;2023-07-13T04:18:46;10.52;;;5.95;;
19207;SDS011;9737;59.466;18.036;2023-07-13T04:21:15;9.73;;;5.53;;
19207;SDS011;9737;59.466;18.036;2023-07-13T04:23:43;7.68;;;5.15;;
19207;SDS011;9737;59.466;18.036;2023-07-13T04:26:11;7.75;;;5.53;;
19207;SDS011;9737;59.466;18.036;2023-07-13T04:28:41;15.13;;;5.57;;
19207;SDS011;9737;59.466;18.036;2023-07-13T04:31:09;8.85;;;4.97;;
19207;SDS011;9737;59.466;18.036;2023-07-13T04:33:37;9.52;;;5.25;;
19207;SDS011;9737;59.466;18.036;2023-07-13T04:36:05;8.90;;;5.68;;
19207;SDS011;9737;59.466;18.036;2023-07-13T04:38:36;9.52;;;5.15;;
19207;SDS011;9737;59.466;18.036;2023-07-13T04:41:05;9.25;;;5.45;;
19207;SDS011;9737;59.466;18.036;2023-07-13T04:43:35;11.98;;;5.57;;
19207;SDS011;9737;59.466;18.036;2023-07-13T04:46:05;7.88;;;4.93;;
19207;SDS011;9737;59.466;18.036;2023-07-13T04:48:34;10.18;;;5.00;;
19207;SDS011;9737;59.466;18.036;2023-07-13T04:51:02;7.88;;;4.18;;
19207;SDS011;9737;59.466;18.036;2023-07-13T04:53:30;11.23;;;4.80;;
19207;SDS011;9737;59.466;18.036;2023-07-13T04:56:01;10.00;;;4.50;;
19207;SDS011;9737;59.466;18.036;2023-07-13T04:58:29;9.88;;;4.15;;
19207;SDS011;9737;59.466;18.036;2023-07-13T05:00:59;7.40;;;4.50;;
19207;SDS011;9737;59.466;18.036;2023-07-13T05:03:29;8.60;;;4.38;;
19207;SDS011;9737;59.466;18.036;2023-07-13T05:05:57;8.90;;;4.20;;
19207;SDS011;9737;59.466;18.036;2023-07-13T05:08:27;7.43;;;4.03;;
19207;SDS011;9737;59.466;18.036;2023-07-13T05:10:55;10.65;;;4.13;;
19207;SDS011;9737;59.466;18.036;2023-07-13T05:13:23;10.52;;;3.95;;
19207;SDS011;9737;59.466;18.036;2023-07-13T05:15:55;11.98;;;3.90;;
19207;SDS011;9737;59.466;18.036;2023-07-13T05:18:24;5.45;;;3.80;;
19207;SDS011;9737;59.466;18.036;2023-07-13T05:21:00;6.35;;;3.58;;
19207;SDS011;9737;59.466;18.036;2023-07-13T05:23:30;6.72;;;3.78;;
19207;SDS011;9737;59.466;18.036;2023-07-13T05:25:58;10.85;;;3.85;;
19207;SDS011;9737;59.466;18.036;2023-07-13T05:28:27;6.70;;;3.60;;
19207;SDS011;9737;59.466;18.036;2023-07-13T05:30:56;7.45;;;3.60;;
19207;SDS011;9737;59.466;18.036;2023-07-13T05:33:24;6.72;;;3.50;;
19207;SDS011;9737;59.466;18.036;2023-07-13T05:35:52;7.50;;;3.60;;
19207;SDS011;9737;59.466;18.036;2023-07-13T05:38:22;8.18;;;3.50;;
19207;SDS011;9737;59.466;18.036;2023-07-13T05:40:50;5.97;;;3.42;;
19207;SDS011;9737;59.466;18.036;2023-07-13T05:43:18;6.32;;;3.42;;
19207;SDS011;9737;59.466;18.036;2023-07-13T05:45:46;7.20;;;3.13;;
19207;SDS011;9737;59.466;18.036;2023-07-13T05:48:14;8.35;;;3.30;;
19207;SDS011;9737;59.466;18.036;2023-07-13T05:50:42;8.40;;;3.40;;
19207;SDS011;9737;59.466;18.036;2023-07-13T05:53:09;10.10;;;3.35;;
19207;SDS011;9737;59.466;18.036;2023-07-13T05:55:41;7.22;;;3.25;;
19207;SDS011;9737;59.466;18.036;2023-07-13T05:58:11;8.35;;;3.33;;
19207;SDS011;9737;59.466;18.036;2023-07-13T06:00:39;9.63;;;3.17;;
19207;SDS011;9737;59.466;18.036;2023-07-13T06:03:07;7.03;;;3.20;;
19207;SDS011;9737;59.466;18.036;2023-07-13T06:05:35;11.73;;;3.38;;
19207;SDS011;9737;59.466;18.036;2023-07-13T06:08:06;4.95;;;2.92;;
19207;SDS011;9737;59.466;18.036;2023-07-13T06:10:35;7.22;;;2.80;;
19207;SDS011;9737;59.466;18.036;2023-07-13T06:13:05;7.45;;;2.55;;
19207;SDS011;9737;59.466;18.036;2023-07-13T06:15:32;7.53;;;3.25;;
19207;SDS011;9737;59.466;18.036;2023-07-13T06:18:00;5.97;;;2.80;;
19207;SDS011;9737;59.466;18.036;2023-07-13T06:20:28;4.15;;;2.63;;
19207;SDS011;9737;59.466;18.036;2023-07-13T06:22:57;5.75;;;2.80;;
19207;SDS011;9737;59.466;18.036;2023-07-13T06:25:26;6.05;;;2.95;;
19207;SDS011;9737;59.466;18.036;2023-07-13T06:27:54;5.88;;;3.03;;
19207;SDS011;9737;59.466;18.036;2023-07-13T06:30:23;9.65;;;3.03;;
19207;SDS011;9737;59.466;18.036;2023-07-13T06:32:52;9.40;;;3.08;;
19207;SDS011;9737;59.466;18.036;2023-07-13T06:35:20;8.38;;;2.72;;
19207;SDS011;9737;59.466;18.036;2023-07-13T06:37:48;7.88;;;2.55;;
19207;SDS011;9737;59.466;18.036;2023-07-13T06:40:15;4.88;;;2.50;;
19207;SDS011;9737;59.466;18.036;2023-07-13T06:42:43;13.50;;;2.90;;
19207;SDS011;9737;59.466;18.036;2023-07-13T06:45:11;7.30;;;2.53;;
19207;SDS011;9737;59.466;18.036;2023-07-13T06:47:40;5.30;;;2.50;;
19207;SDS011;9737;59.466;18.036;2023-07-13T06:50:09;9.95;;;3.08;;
19207;SDS011;9737;59.466;18.036;2023-07-13T06:52:37;6.63;;;2.75;;
19207;SDS011;9737;59.466;18.036;2023-07-13T06:55:05;7.00;;;2.92;;
19207;SDS011;9737;59.466;18.036;2023-07-13T06:57:33;8.07;;;2.90;;
19207;SDS011;9737;59.466;18.036;2023-07-13T07:00:01;9.05;;;2.60;;
19207;SDS011;9737;59.466;18.036;2023-07-13T07:02:29;7.13;;;2.92;;
19207;SDS011;9737;59.466;18.036;2023-07-13T07:04:58;8.07;;;2.58;;
19207;SDS011;9737;59.466;18.036;2023-07-13T07:07:27;8.85;;;2.60;;
19207;SDS011;9737;59.466;18.036;2023-07-13T07:09:55;7.32;;;2.70;;
19207;SDS011;9737;59.466;18.036;2023-07-13T07:12:23;7.30;;;2.40;;
19207;SDS011;9737;59.466;18.036;2023-07-13T07:14:51;7.88;;;2.40;;
19207;SDS011;9737;59.466;18.036;2023-07-13T07:17:19;6.88;;;2.47;;
19207;SDS011;9737;59.466;18.036;2023-07-13T07:19:50;8.05;;;2.30;;
19207;SDS011;9737;59.466;18.036;2023-07-13T07:22:21;8.10;;;2.67;;
19207;SDS011;9737;59.466;18.036;2023-07-13T07:24:49;6.78;;;2.50;;
19207;SDS011;9737;59.466;18.036;2023-07-13T07:27:17;6.57;;;2.28;;
19207;SDS011;9737;59.466;18.036;2023-07-13T07:29:48;4.55;;;2.22;;
19207;SDS011;9737;59.466;18.036;2023-07-13T07:32:36;5.20;;;2.10;;
19207;SDS011;9737;59.466;18.036;2023-07-13T07:35:07;5.68;;;2.58;;
19207;SDS011;9737;59.466;18.036;2023-07-13T07:37:36;9.82;;;2.10;;
19207;SDS011;9737;59.466;18.036;2023-07-13T07:40:07;4.57;;;2.28;;
19207;SDS011;9737;59.466;18.036;2023-07-13T07:42:38;7.07;;;2.00;;
19207;SDS011;9737;59.466;18.036;2023-07-13T07:45:06;10.02;;;2.30;;
19207;SDS011;9737;59.466;18.036;2023-07-13T07:47:34;9.60;;;2.22;;
19207;SDS011;9737;59.466;18.036;2023-07-13T07:50:02;4.93;;;2.22;;
19207;SDS011;9737;59.466;18.036;2023-07-13T07:52:30;10.15;;;2.60;;
19207;SDS011;9737;59.466;18.036;2023-07-13T07:54:59;6.90;;;2.20;;
19207;SDS011;9737;59.466;18.036;2023-07-13T07:57:30;8.50;;;2.20;;
19207;SDS011;9737;59.466;18.036;2023-07-13T08:00:18;9.55;;;2.30;;
19207;SDS011;9737;59.466;18.036;2023-07-13T08:02:49;3.65;;;2.10;;
19207;SDS011;9737;59.466;18.036;2023-07-13T08:05:20;5.07;;;2.10;;
19207;SDS011;9737;59.466;18.036;2023-07-13T08:08:04;4.72;;;2.03;;
19207;SDS011;9737;59.466;18.036;2023-07-13T08:10:34;4.20;;;1.88;;
19207;SDS011;9737;59.466;18.036;2023-07-13T08:13:03;8.07;;;1.98;;
19207;SDS011;9737;59.466;18.036;2023-07-13T08:15:33;4.05;;;2.00;;
19207;SDS011;9737;59.466;18.036;2023-07-13T08:18:01;8.25;;;2.08;;
19207;SDS011;9737;59.466;18.036;2023-07-13T08:20:29;5.05;;;2.00;;
19207;SDS011;9737;59.466;18.036;2023-07-13T08:22:57;7.63;;;2.03;;
19207;SDS011;9737;59.466;18.036;2023-07-13T08:25:25;5.57;;;2.10;;
19207;SDS011;9737;59.466;18.036;2023-07-13T08:27:54;8.77;;;2.10;;
19207;SDS011;9737;59.466;18.036;2023-07-13T08:30:22;8.82;;;1.70;;
19207;SDS011;9737;59.466;18.036;2023-07-13T08:32:50;8.00;;;2.25;;
19207;SDS011;9737;59.466;18.036;2023-07-13T08:35:18;5.15;;;1.70;;
19207;SDS011;9737;59.466;18.036;2023-07-13T08:37:45;7.82;;;2.13;;
19207;SDS011;9737;59.466;18.036;2023-07-13T08:40:13;8.07;;;2.08;;
19207;SDS011;9737;59.466;18.036;2023-07-13T08:42:42;6.88;;;2.15;;
19207;SDS011;9737;59.466;18.036;2023-07-13T08:45:17;4.65;;;1.63;;
19207;SDS011;9737;59.466;18.036;2023-07-13T08:47:51;8.10;;;1.92;;
19207;SDS011;9737;59.466;18.036;2023-07-13T08:50:23;7.47;;;2.00;;
19207;SDS011;9737;59.466;18.036;2023-07-13T08:52:54;7.72;;;1.70;;
19207;SDS011;9737;59.466;18.036;2023-07-13T08:55:26;6.20;;;1.80;;
19207;SDS011;9737;59.466;18.036;2023-07-13T08:57:59;7.35;;;1.88;;
19207;SDS011;9737;59.466;18.036;2023-07-13T09:00:34;6.40;;;2.15;;
19207;SDS011;9737;59.466;18.036;2023-07-13T09:03:12;8.52;;;2.10;;
19207;SDS011;9737;59.466;18.036;2023-07-13T09:05:49;5.88;;;1.90;;
19207;SDS011;9737;59.466;18.036;2023-07-13T09:08:35;3.92;;;1.65;;
19207;SDS011;9737;59.466;18.036;2023-07-13T09:11:16;6.13;;;1.92;;
19207;SDS011;9737;59.466;18.036;2023-07-13T09:13:57;4.75;;;1.90;;
19207;SDS011;9737;59.466;18.036;2023-07-13T09:16:35;7.72;;;1.52;;
19207;SDS011;9737;59.466;18.036;2023-07-13T09:19:06;3.78;;;1.90;;
19207;SDS011;9737;59.466;18.036;2023-07-13T09:21:39;5.10;;;1.70;;
19207;SDS011;9737;59.466;18.036;2023-07-13T09:27:09;6.13;;;1.65;;
19207;SDS011;9737;59.466;18.036;2023-07-13T09:29:45;4.93;;;1.50;;
19207;SDS011;9737;59.466;18.036;2023-07-13T09:32:19;6.57;;;1.70;;
19207;SDS011;9737;59.466;18.036;2023-07-13T09:34:52;5.07;;;1.58;;
19207;SDS011;9737;59.466;18.036;2023-07-13T09:37:21;5.97;;;1.60;;
19207;SDS011;9737;59.466;18.036;2023-07-13T09:39:50;3.80;;;1.50;;
19207;SDS011;9737;59.466;18.036;2023-07-13T09:42:20;7.05;;;1.60;;
19207;SDS011;9737;59.466;18.036;2023-07-13T09:44:53;5.28;;;1.70;;
19207;SDS011;9737;59.466;18.036;2023-07-13T09:47:24;5.10;;;1.40;;
19207;SDS011;9737;59.466;18.036;2023-07-13T09:49:54;4.32;;;1.33;;
19207;SDS011;9737;59.466;18.036;2023-07-13T09:52:38;3.17;;;1.65;;
19207;SDS011;9737;59.466;18.036;2023-07-13T09:55:22;3.90;;;1.30;;
19207;SDS011;9737;59.466;18.036;2023-07-13T09:57:52;4.63;;;1.38;;
19207;SDS011;9737;59.466;18.036;2023-07-13T10:00:21;3.50;;;1.20;;
19207;SDS011;9737;59.466;18.036;2023-07-13T10:03:03;3.33;;;1.40;;
19207;SDS011;9737;59.466;18.036;2023-07-13T10:05:40;4.43;;;1.30;;
19207;SDS011;9737;59.466;18.036;2023-07-13T10:08:16;3.20;;;1.58;;
19207;SDS011;9737;59.466;18.036;2023-07-13T10:10:45;4.65;;;1.50;;
19207;SDS011;9737;59.466;18.036;2023-07-13T10:16:04;2.97;;;1.20;;
19207;SDS011;9737;59.466;18.036;2023-07-13T10:18:37;24.23;;;2.08;;
19207;SDS011;9737;59.466;18.036;2023-07-13T10:21:11;32.03;;;2.50;;
19207;SDS011;9737;59.466;18.036;2023-07-13T10:23:45;7.35;;;1.40;;
19207;SDS011;9737;59.466;18.036;2023-07-13T10:26:19;4.72;;;1.30;;
19207;SDS011;9737;59.466;18.036;2023-07-13T10:28:52;3.42;;;1.20;;
19207;SDS011;9737;59.466;18.036;2023-07-13T10:31:23;4.25;;;1.40;;
19207;SDS011;9737;59.466;18.036;2023-07-13T10:33:53;4.53;;;1.30;;
19207;SDS011;9737;59.466;18.036;2023-07-13T10:36:27;2.63;;;1.13;;
19207;SDS011;9737;59.466;18.036;2023-07-13T10:38:59;8.32;;;1.35;;
19207;SDS011;9737;59.466;18.036;2023-07-13T10:41:30;5.05;;;1.40;;
19207;SDS011;9737;59.466;18.036;2023-07-13T10:44:03;3.53;;;1.23;;
19207;SDS011;9737;59.466;18.036;2023-07-13T10:46:38;3.72;;;1.27;;
19207;SDS011;9737;59.466;18.036;2023-07-13T10:49:09;2.55;;;1.10;;
19207;SDS011;9737;59.466;18.036;2023-07-13T10:51:39;5.20;;;1.17;;
19207;SDS011;9737;59.466;18.036;2023-07-13T10:54:12;2.15;;;1.00;;
19207;SDS011;9737;59.466;18.036;2023-07-13T10:56:46;3.53;;;1.25;;
19207;SDS011;9737;59.466;18.036;2023-07-13T10:59:18;6.40;;;1.45;;
19207;SDS011;9737;59.466;18.036;2023-07-13T11:01:54;3.63;;;1.15;;
19207;SDS011;9737;59.466;18.036;2023-07-13T11:04:25;3.97;;;1.20;;
19207;SDS011;9737;59.466;18.036;2023-07-13T11:06:56;3.55;;;1.45;;
19207;SDS011;9737;59.466;18.036;2023-07-13T11:09:31;3.67;;;1.13;;
19207;SDS011;9737;59.466;18.036;2023-07-13T11:12:06;6.07;;;1.60;;
19207;SDS011;9737;59.466;18.036;2023-07-13T11:14:59;3.97;;;1.30;;
19207;SDS011;9737;59.466;18.036;2023-07-13T11:17:34;3.45;;;1.42;;
19207;SDS011;9737;59.466;18.036;2023-07-13T11:20:31;3.95;;;1.40;;
19207;SDS011;9737;59.466;18.036;2023-07-13T11:23:15;3.95;;;1.45;;
19207;SDS011;9737;59.466;18.036;2023-07-13T11:25:46;3.42;;;1.35;;
19207;SDS011;9737;59.466;18.036;2023-07-13T11:28:21;5.63;;;1.38;;
19207;SDS011;9737;59.466;18.036;2023-07-13T11:31:00;3.83;;;1.50;;
19207;SDS011;9737;59.466;18.036;2023-07-13T11:33:45;3.08;;;1.08;;
19207;SDS011;9737;59.466;18.036;2023-07-13T11:36:27;5.00;;;1.20;;
19207;SDS011;9737;59.466;18.036;2023-07-13T11:39:00;2.88;;;1.10;;
19207;SDS011;9737;59.466;18.036;2023-07-13T11:41:32;4.03;;;1.25;;
19207;SDS011;9737;59.466;18.036;2023-07-13T11:44:11;5.03;;;1.35;;
19207;SDS011;9737;59.466;18.036;2023-07-13T11:46:44;6.35;;;1.30;;
19207;SDS011;9737;59.466;18.036;2023-07-13T11:49:17;4.43;;;1.23;;
19207;SDS011;9737;59.466;18.036;2023-07-13T11:51:47;5.15;;;1.30;;
19207;SDS011;9737;59.466;18.036;2023-07-13T11:54:24;4.57;;;1.30;;
19207;SDS011;9737;59.466;18.036;2023-07-13T11:56:54;5.35;;;1.40;;
19207;SDS011;9737;59.466;18.036;2023-07-13T11:59:27;5.35;;;1.10;;
19207;SDS011;9737;59.466;18.036;2023-07-13T12:01:57;4.65;;;1.30;;
19207;SDS011;9737;59.466;18.036;2023-07-13T12:04:26;3.05;;;1.50;;
19207;SDS011;9737;59.466;18.036;2023-07-13T12:07:03;3.28;;;1.20;;
19207;SDS011;9737;59.466;18.036;2023-07-13T12:09:33;5.38;;;1.38;;
19207;SDS011;9737;59.466;18.036;2023-07-13T12:12:03;4.03;;;1.13;;
19207;SDS011;9737;59.466;18.036;2023-07-13T12:14:33;7.60;;;1.40;;
19207;SDS011;9737;59.466;18.036;2023-07-13T12:17:03;4.10;;;1.20;;
19207;SDS011;9737;59.466;18.036;2023-07-13T12:19:39;5.53;;;1.17;;
19207;SDS011;9737;59.466;18.036;2023-07-13T12:22:10;3.55;;;1.20;;
19207;SDS011;9737;59.466;18.036;2023-07-13T12:24:41;6.13;;;1.42;;
19207;SDS011;9737;59.466;18.036;2023-07-13T12:27:13;6.50;;;1.17;;
19207;SDS011;9737;59.466;18.036;2023-07-13T12:29:51;7.85;;;1.63;;
19207;SDS011;9737;59.466;18.036;2023-07-13T12:32:21;4.38;;;1.45;;
19207;SDS011;9737;59.466;18.036;2023-07-13T12:34:52;3.50;;;1.35;;
19207;SDS011;9737;59.466;18.036;2023-07-13T12:37:24;3.63;;;1.35;;
19207;SDS011;9737;59.466;18.036;2023-07-13T12:39:52;5.03;;;1.13;;
19207;SDS011;9737;59.466;18.036;2023-07-13T12:42:21;4.70;;;1.20;;
19207;SDS011;9737;59.466;18.036;2023-07-13T12:44:54;3.72;;;1.25;;
19207;SDS011;9737;59.466;18.036;2023-07-13T12:47:24;3.08;;;1.10;;
19207;SDS011;9737;59.466;18.036;2023-07-13T12:49:54;3.55;;;1.25;;
19207;SDS011;9737;59.466;18.036;2023-07-13T12:52:28;2.55;;;1.00;;
19207;SDS011;9737;59.466;18.036;2023-07-13T12:54:58;4.03;;;1.20;;
19207;SDS011;9737;59.466;18.036;2023-07-13T12:57:37;4.93;;;1.10;;
19207;SDS011;9737;59.466;18.036;2023-07-13T13:00:21;4.43;;;1.10;;
19207;SDS011;9737;59.466;18.036;2023-07-13T13:02:52;4.00;;;0.98;;
19207;SDS011;9737;59.466;18.036;2023-07-13T13:05:41;3.97;;;1.27;;
19207;SDS011;9737;59.466;18.036;2023-07-13T13:08:11;2.90;;;1.02;;
19207;SDS011;9737;59.466;18.036;2023-07-13T13:10:39;2.05;;;1.17;;
19207;SDS011;9737;59.466;18.036;2023-07-13T13:13:07;3.35;;;1.30;;
19207;SDS011;9737;59.466;18.036;2023-07-13T13:15:36;2.95;;;1.40;;
19207;SDS011;9737;59.466;18.036;2023-07-13T13:18:08;4.60;;;1.38;;
19207;SDS011;9737;59.466;18.036;2023-07-13T13:20:42;4.07;;;1.20;;
19207;SDS011;9737;59.466;18.036;2023-07-13T13:23:12;3.72;;;1.25;;
19207;SDS011;9737;59.466;18.036;2023-07-13T13:25:42;3.70;;;1.20;;
19207;SDS011;9737;59.466;18.036;2023-07-13T13:28:12;5.35;;;1.58;;
19207;SDS011;9737;59.466;18.036;2023-07-13T13:30:43;4.32;;;1.35;;
19207;SDS011;9737;59.466;18.036;2023-07-13T13:33:12;2.58;;;1.20;;
19207;SDS011;9737;59.466;18.036;2023-07-13T13:35:41;2.67;;;1.20;;
19207;SDS011;9737;59.466;18.036;2023-07-13T13:38:10;3.78;;;1.40;;
19207;SDS011;9737;59.466;18.036;2023-07-13T13:40:41;5.93;;;1.60;;
19207;SDS011;9737;59.466;18.036;2023-07-13T13:43:14;3.65;;;1.10;;
19207;SDS011;9737;59.466;18.036;2023-07-13T13:45:44;4.90;;;1.00;;
19207;SDS011;9737;59.466;18.036;2023-07-13T13:48:14;2.90;;;0.98;;
19207;SDS011;9737;59.466;18.036;2023-07-13T13:50:44;5.20;;;1.20;;
19207;SDS011;9737;59.466;18.036;2023-07-13T13:53:13;4.13;;;0.98;;
19207;SDS011;9737;59.466;18.036;2023-07-13T13:55:42;2.20;;;1.10;;
19207;SDS011;9737;59.466;18.036;2023-07-13T13:58:10;2.80;;;1.00;;
19207;SDS011;9737;59.466;18.036;2023-07-13T14:00:38;3.97;;;1.02;;
19207;SDS011;9737;59.466;18.036;2023-07-13T14:03:08;3.10;;;1.20;;
19207;SDS011;9737;59.466;18.036;2023-07-13T14:05:43;3.78;;;1.10;;
19207;SDS011;9737;59.466;18.036;2023-07-13T14:08:13;4.07;;;1.45;;
19207;SDS011;9737;59.466;18.036;2023-07-13T14:10:42;3.50;;;1.33;;
19207;SDS011;9737;59.466;18.036;2023-07-13T14:13:14;3.15;;;1.27;;
19207;SDS011;9737;59.466;18.036;2023-07-13T14:15:45;7.97;;;1.60;;
19207;SDS011;9737;59.466;18.036;2023-07-13T14:18:14;3.10;;;1.30;;
19207;SDS011;9737;59.466;18.036;2023-07-13T14:20:44;3.20;;;1.60;;
19207;SDS011;9737;59.466;18.036;2023-07-13T14:23:14;6.47;;;1.40;;
19207;SDS011;9737;59.466;18.036;2023-07-13T14:25:44;2.42;;;1.15;;
19207;SDS011;9737;59.466;18.036;2023-07-13T14:28:21;4.30;;;1.58;;
19207;SDS011;9737;59.466;18.036;2023-07-13T14:30:51;7.03;;;1.67;;
19207;SDS011;9737;59.466;18.036;2023-07-13T14:33:21;6.03;;;1.63;;
19207;SDS011;9737;59.466;18.036;2023-07-13T14:35:49;3.28;;;1.25;;
19207;SDS011;9737;59.466;18.036;2023-07-13T14:38:20;3.80;;;1.40;;
19207;SDS011;9737;59.466;18.036;2023-07-13T14:40:48;7.70;;;1.83;;
19207;SDS011;9737;59.466;18.036;2023-07-13T14:43:17;3.15;;;1.35;;
19207;SDS011;9737;59.466;18.036;2023-07-13T14:45:46;7.05;;;1.65;;
19207;SDS011;9737;59.466;18.036;2023-07-13T14:48:16;3.60;;;1.42;;
19207;SDS011;9737;59.466;18.036;2023-07-13T14:50:46;2.92;;;1.20;;
19207;SDS011;9737;59.466;18.036;2023-07-13T14:53:14;2.40;;;1.40;;
19207;SDS011;9737;59.466;18.036;2023-07-13T14:55:43;3.60;;;1.38;;
19207;SDS011;9737;59.466;18.036;2023-07-13T14:58:11;6.25;;;1.58;;
19207;SDS011;9737;59.466;18.036;2023-07-13T15:00:40;4.30;;;1.30;;
19207;SDS011;9737;59.466;18.036;2023-07-13T15:03:12;6.53;;;2.00;;
19207;SDS011;9737;59.466;18.036;2023-07-13T15:05:48;5.82;;;1.42;;
19207;SDS011;9737;59.466;18.036;2023-07-13T15:08:16;2.65;;;1.30;;
19207;SDS011;9737;59.466;18.036;2023-07-13T15:10:46;4.30;;;1.40;;